Time;durP1;ratioP1;P1;durP2;ratioP2;P2;SDS_P1;SDS_P2;PMS_P1;PMS_P2;Temp;Humidity;BMP_temperature;BMP_pressure;BME280_temperature;BME280_humidity;BME280_pressure;Samples;Min_cycle;Max_cycle;Signal;HPM_P1;HPM_P2
2023/01/15 00:08:01;;;;;;;;;;;;;;;7.85;93.12;99649.28;20937497;28;19978;-57
2023/01/15 00:18:22;;;;;;;;;;;;;;;7.81;92.05;99652.84;20942301;28;20093;-56
2023/01/15 00:28:46;;;;;;;;;;;;;;;7.82;91.22;99645.06;20934088;28;19947;-58
2023/01/15 00:39:08;;;;;;;;;;;;;;;7.78;90.69;99647.84;20939991;28;20379;-57
2023/01/15 00:49:29;;;;;;;;;;;;;;;7.75;91.11;99664.22;20937138;28;19928;-57
2023/01/15 00:59:50;;;;;;;;;;;;;;;7.72;90.94;99671.22;20939724;28;19925;-57
2023/01/15 01:10:12;;;;;;;;;;;;;;;7.69;90.55;99667.00;20947966;28;19966;-56
2023/01/15 01:20:33;;;;;;;;;;;;;;;7.72;89.96;99684.09;20931925;28;19928;-57
2023/01/15 01:30:55;;;;;;;;;;;;;;;7.69;90.16;99673.91;20929896;28;19925;-59
2023/01/15 01:41:17;;;;;;;;;;;;;;;7.70;89.90;99680.72;20927943;28;19928;-57
2023/01/15 01:51:42;;;;;;;;;;;;;;;7.73;89.58;99675.47;20925231;28;20413;-57
2023/01/15 02:02:04;;;;;;;;;;;;;;;7.74;89.83;99687.44;20936973;28;19925;-56
2023/01/15 02:12:30;;;;;;;;;;;;;;;7.71;89.24;99683.25;20934935;28;19937;-58
2023/01/15 02:23:03;;;;;;;;;;;;;;;7.73;88.95;99696.91;20938192;28;19952;-57
2023/01/15 02:33:29;;;;;;;;;;;;;;;7.75;89.10;99704.56;20938580;28;19925;-57
2023/01/15 02:43:53;;;;;;;;;;;;;;;7.75;88.34;99702.84;20929573;28;19955;-57
2023/01/15 02:54:15;;;;;;;;;;;;;;;7.75;87.55;99673.66;20953782;28;19924;-58
2023/01/15 03:04:47;;;;;;;;;;;;;;;7.71;87.53;99662.66;20955767;28;19978;-57
2023/01/15 03:16:33;;;;;;;;;;;;;;;7.73;87.38;99653.13;20948844;28;19929;-59
2023/01/15 03:25:59;;;;;;;;;;;;;;;7.66;87.54;99666.28;20944522;28;19958;-58
2023/01/15 03:36:21;;;;;;;;;;;;;;;7.73;85.94;99658.28;20933890;28;19924;-57
2023/01/15 03:47:01;;;;;;;;;;;;;;;7.71;85.95;99641.25;20948643;28;19933;-57
2023/01/15 03:57:22;;;;;;;;;;;;;;;7.78;85.16;99640.09;20948588;28;19936;-59
2023/01/15 04:07:45;;;;;;;;;;;;;;;7.69;85.15;99623.25;20960162;28;19954;-57
2023/01/15 04:18:06;;;;;;;;;;;;;;;7.75;84.67;99617.03;20959869;28;20422;-57
2023/01/15 04:28:27;;;;;;;;;;;;;;;7.65;84.63;99621.72;20956494;28;20390;-57
2023/01/15 04:38:49;;;;;;;;;;;;;;;7.64;84.38;99603.72;20931491;28;19939;-57
2023/01/15 04:49:12;;;;;;;;;;;;;;;7.62;83.90;99596.06;20944283;28;19924;-58
2023/01/15 04:59:33;;;;;;;;;;;;;;;7.60;83.79;99594.47;20935843;28;20570;-57
2023/01/15 05:09:54;;;;;;;;;;;;;;;7.51;84.46;99592.25;20930412;28;19925;-57
2023/01/15 05:20:16;;;;;;;;;;;;;;;7.50;83.71;99590.53;20936644;28;19928;-58
2023/01/15 05:30:37;;;;;;;;;;;;;;;7.53;84.08;99574.97;20927862;28;19967;-58
2023/01/15 05:41:01;;;;;;;;;;;;;;;7.46;83.75;99594.97;20933007;28;19970;-59
2023/01/15 05:51:23;;;;;;;;;;;;;;;7.50;83.12;99585.41;20933697;28;19978;-58
2023/01/15 06:01:44;;;;;;;;;;;;;;;7.44;83.17;99613.94;20937272;28;19928;-57
2023/01/15 06:12:05;;;;;;;;;;;;;;;7.48;81.76;99612.91;20946524;28;20291;-59
2023/01/15 06:22:28;;;;;;;;;;;;;;;7.38;82.35;99593.59;20930655;28;19932;-58
2023/01/15 06:32:49;;;;;;;;;;;;;;;7.27;83.14;99611.16;20927314;28;20020;-57
2023/01/15 06:53:51;;;;;;;;;;;;;;;7.22;81.57;99593.28;20939857;28;19990;-58
2023/01/15 07:04:13;;;;;;;;;;;;;;;7.02;81.49;99583.72;20944522;28;19958;-57
2023/01/15 07:14:35;;;;;;;;;;;;;;;6.91;81.94;99597.84;20924911;28;20275;-57
2023/01/15 07:24:57;;;;;;;;;;;;;;;6.89;82.36;99594.50;20928161;28;19933;-57
2023/01/15 07:35:18;;;;;;;;;;;;;;;6.95;81.83;99578.88;20921032;28;19960;-57
2023/01/15 07:56:20;;;;;;;;;;;;;;;6.78;81.47;99564.03;20940939;28;19978;-58
2023/01/15 08:06:42;;;;;;;;;;;;;;;6.87;81.30;99558.56;20945933;28;19993;-58
2023/01/15 08:17:03;;;;;;;;;;;;;;;6.84;80.69;99571.53;20935519;28;19928;-57
2023/01/15 08:27:25;;;;;;;;;;;;;;;6.78;80.10;99584.59;20930365;28;19929;-57
2023/01/15 08:37:46;;;;;;;;;;;;;;;6.76;78.33;99582.94;20962723;28;19924;-57
2023/01/15 08:48:08;;;;;;;;;;;;;;;6.86;78.11;99582.59;20930113;28;19979;-57
2023/01/15 08:58:30;;;;;;;;;;;;;;;6.86;77.90;99580.03;20932347;28;19952;-58
2023/01/15 09:08:52;;;;;;;;;;;;;;;6.86;78.95;99577.47;20930521;28;19950;-59
2023/01/15 09:19:13;;;;;;;;;;;;;;;6.85;79.81;99585.19;20928554;28;19932;-57
2023/01/15 09:29:34;;;;;;;;;;;;;;;6.86;78.59;99580.03;20946322;28;19994;-58
2023/01/15 09:39:56;;;;;;;;;;;;;;;7.01;75.89;99584.63;20931481;28;19979;-60
2023/01/15 09:50:24;;;;;;;;;;;;;;;7.14;75.89;99596.13;20940007;28;20364;-58
2023/01/15 10:00:47;;;;;;;;;;;;;;;7.31;75.11;99571.56;20921137;28;19952;-58
2023/01/15 10:11:15;;;;;;;;;;;;;;;7.27;74.27;99595.72;20931717;28;19970;-57
2023/01/15 10:21:54;;;;;;;;;;;;;;;7.07;76.19;99610.13;20942356;28;19959;-58
2023/01/15 10:32:19;;;;;;;;;;;;;;;6.38;79.44;99579.13;20928492;28;19974;-59
2023/01/15 10:42:41;;;;;;;;;;;;;;;6.01;80.37;99594.03;20912397;28;19979;-59
2023/01/15 10:53:32;;;;;;;;;;;;;;;5.85;80.46;99572.31;20930290;28;19928;-58
2023/01/15 11:03:53;;;;;;;;;;;;;;;5.87;80.93;99591.06;20881965;28;20015;-57
2023/01/15 11:25:00;;;;;;;;;;;;;;;5.94;82.78;99579.72;20939508;28;19924;-58
2023/01/15 11:35:21;;;;;;;;;;;;;;;5.89;84.53;99581.59;20935009;28;19932;-57
2023/01/15 11:56:32;;;;;;;;;;;;;;;5.92;87.58;99543.84;20956796;28;19964;-58
2023/01/15 12:06:54;;;;;;;;;;;;;;;6.13;86.53;99548.25;20944538;28;19975;-57
2023/01/15 12:17:34;;;;;;;;;;;;;;;6.44;83.98;99534.41;20929625;28;19970;-57
2023/01/15 12:28:02;;;;;;;;;;;;;;;6.77;82.94;99510.94;20940098;28;20000;-57
2023/01/15 12:38:43;;;;;;;;;;;;;;;6.91;81.69;99503.56;20934181;28;19933;-57
2023/01/15 12:49:30;;;;;;;;;;;;;;;6.97;80.89;99487.09;20944563;28;19924;-58
2023/01/15 13:00:01;;;;;;;;;;;;;;;7.13;80.13;99455.59;20940052;28;19928;-57
2023/01/15 13:10:25;;;;;;;;;;;;;;;7.27;77.68;99480.75;20933148;28;19955;-57
2023/01/15 13:20:50;;;;;;;;;;;;;;;7.53;77.77;99466.88;20928216;28;19929;-59
2023/01/15 13:31:11;;;;;;;;;;;;;;;7.59;77.19;99446.91;20925968;28;19927;-57
2023/01/15 13:52:40;;;;;;;;;;;;;;;7.85;75.33;99487.88;20942352;28;19925;-58
2023/01/15 14:03:02;;;;;;;;;;;;;;;7.90;76.64;99503.13;20935119;28;19978;-58
2023/01/15 14:13:44;;;;;;;;;;;;;;;8.04;75.32;99511.13;20939035;28;19928;-59
2023/01/15 14:24:24;;;;;;;;;;;;;;;7.91;76.23;99543.47;20946043;28;19998;-58
2023/01/15 14:34:53;;;;;;;;;;;;;;;7.49;79.90;99553.66;20931578;28;20448;-59
2023/01/15 14:45:26;;;;;;;;;;;;;;;7.32;80.67;99586.09;20932998;28;20349;-58
2023/01/15 14:55:49;;;;;;;;;;;;;;;7.25;82.58;99594.94;20950366;28;20334;-57
2023/01/15 15:06:12;;;;;;;;;;;;;;;7.11;84.35;99627.13;20950688;28;19936;-59
2023/01/15 15:16:39;;;;;;;;;;;;;;;6.11;88.57;99687.88;20931577;28;19928;-56
2023/01/15 15:27:13;;;;;;;;;;;;;;;5.56;90.58;99692.91;20943798;28;20333;-58
2023/01/15 15:37:34;;;;;;;;;;;;;;;5.48;90.00;99700.81;20948686;28;19932;-56
2023/01/15 15:58:37;;;;;;;;;;;;;;;5.50;92.16;99716.16;20946441;28;19955;-57
2023/01/15 16:09:03;;;;;;;;;;;;;;;5.75;90.53;99714.63;20953031;28;20425;-58
2023/01/15 16:19:26;;;;;;;;;;;;;;;5.89;90.76;99727.91;20927848;28;19939;-56
2023/01/15 16:29:49;;;;;;;;;;;;;;;6.06;90.50;99741.09;20923692;28;20375;-58
2023/01/15 16:40:18;;;;;;;;;;;;;;;6.13;90.24;99741.75;20925870;28;19924;-57
2023/01/15 16:50:41;;;;;;;;;;;;;;;6.18;89.76;99756.16;20948844;28;20392;-58
2023/01/15 17:01:23;;;;;;;;;;;;;;;6.20;90.39;99769.78;20934219;28;19978;-59
2023/01/15 17:11:48;;;;;;;;;;;;;;;6.23;90.99;99790.22;20937671;28;21276;-59
2023/01/15 17:22:14;;;;;;;;;;;;;;;6.12;92.35;99807.66;20930666;28;20391;-58
2023/01/15 17:32:38;;;;;;;;;;;;;;;6.13;91.28;99814.50;20924221;28;19978;-56
2023/01/15 17:43:00;;;;;;;;;;;;;;;6.18;91.71;99822.91;20936464;28;19924;-57
2023/01/15 17:53:22;;;;;;;;;;;;;;;6.17;91.38;99846.94;20935227;28;19925;-57
2023/01/15 18:14:31;;;;;;;;;;;;;;;6.26;91.57;99856.94;20912853;28;20412;-57
2023/01/15 18:24:52;;;;;;;;;;;;;;;6.21;92.11;99860.53;20892472;28;19955;-57
2023/01/15 18:35:14;;;;;;;;;;;;;;;6.31;91.10;99877.34;20943056;28;19928;-58
2023/01/15 18:56:37;;;;;;;;;;;;;;;6.36;90.77;99899.44;20953631;28;19936;-56
2023/01/15 19:06:57;;;;;;;;;;;;;;;6.31;91.80;99903.88;20936169;28;19929;-59
2023/01/15 19:28:00;;;;;;;;;;;;;;;6.29;90.93;99913.34;20930317;28;20443;-56
2023/01/15 19:38:22;;;;;;;;;;;;;;;6.37;89.87;99910.56;20942241;28;20465;-56
2023/01/15 19:59:23;;;;;;;;;;;;;;;6.37;90.22;99939.69;20926658;28;20676;-58
2023/01/15 20:09:45;;;;;;;;;;;;;;;6.38;89.81;99936.22;20923072;28;19933;-56
2023/01/15 20:20:07;;;;;;;;;;;;;;;6.26;90.31;99936.56;20920828;28;19928;-58
2023/01/15 20:30:29;;;;;;;;;;;;;;;6.27;89.39;99948.50;20928991;28;19978;-58
2023/01/15 20:40:53;;;;;;;;;;;;;;;6.21;89.64;99950.41;20923627;28;19968;-58
2023/01/15 20:51:16;;;;;;;;;;;;;;;6.26;88.18;99948.56;20946399;28;19997;-56
2023/01/15 21:01:39;;;;;;;;;;;;;;;6.25;87.29;99941.72;20916090;28;19960;-58
2023/01/15 21:12:00;;;;;;;;;;;;;;;6.13;88.47;99933.44;20913530;28;19959;-56
2023/01/15 21:22:22;;;;;;;;;;;;;;;6.03;89.22;99936.31;20932498;28;20387;-56
2023/01/15 21:32:45;;;;;;;;;;;;;;;5.98;91.50;99928.75;20928676;28;19957;-58
2023/01/15 21:53:48;;;;;;;;;;;;;;;5.86;93.29;99907.69;20913500;28;19932;-57
2023/01/15 22:04:10;;;;;;;;;;;;;;;5.91;92.79;99916.97;20925232;28;20291;-56
2023/01/15 22:14:31;;;;;;;;;;;;;;;5.98;92.00;99918.47;20924495;28;19967;-57
2023/01/15 22:24:53;;;;;;;;;;;;;;;6.07;91.66;99913.09;20918468;28;19971;-57
2023/01/15 22:35:14;;;;;;;;;;;;;;;6.14;90.00;99906.06;20933528;28;20243;-57
2023/01/15 22:45:36;;;;;;;;;;;;;;;6.21;89.47;99891.34;20926145;28;19975;-57
2023/01/15 22:55:58;;;;;;;;;;;;;;;6.27;89.18;99881.72;20914643;28;19933;-57
2023/01/15 23:06:23;;;;;;;;;;;;;;;6.21;88.60;99869.03;20927014;28;19929;-57
2023/01/15 23:16:44;;;;;;;;;;;;;;;6.24;88.13;99866.41;20937074;28;19932;-57
2023/01/15 23:27:06;;;;;;;;;;;;;;;6.22;88.14;99852.75;20938793;28;19960;-58
2023/01/15 23:37:27;;;;;;;;;;;;;;;6.29;87.35;99851.69;20935699;28;19933;-56
2023/01/15 23:47:49;;;;;;;;;;;;;;;6.24;87.69;99829.59;20915562;28;19952;-56
2023/01/15 23:58:10;;;;;;;;;;;;;;;6.18;86.59;99828.06;20935267;28;19929;-58
